sensor_id;sensor_type;location;lat;lon;timestamp;pressure;altitude;pressure_sealevel;temperature;humidity
41234;BME280;26968;42.686;23.352;2024-03-23T00:55:36;95240.25;;;5.56;56.77
41234;BME280;26968;42.686;23.352;2024-03-23T00:58:02;95246.16;;;5.48;56.90
41234;BME280;26968;42.686;23.352;2024-03-23T01:00:27;95244.91;;;5.60;56.09
41234;BME280;26968;42.686;23.352;2024-03-23T01:02:53;95229.75;;;5.33;56.57
41234;BME280;26968;42.686;23.352;2024-03-23T01:05:18;95231.97;;;5.36;56.75
41234;BME280;26968;42.686;23.352;2024-03-23T01:07:44;95232.78;;;5.37;57.13
41234;BME280;26968;42.686;23.352;2024-03-23T01:10:09;95229.28;;;5.38;56.30
41234;BME280;26968;42.686;23.352;2024-03-23T01:12:36;95236.81;;;5.39;56.50
41234;BME280;26968;42.686;23.352;2024-03-23T01:15:03;95236.06;;;5.47;57.39
41234;BME280;26968;42.686;23.352;2024-03-23T01:17:29;95221.78;;;5.44;56.62
41234;BME280;26968;42.686;23.352;2024-03-23T01:19:54;95226.56;;;5.39;56.66
41234;BME280;26968;42.686;23.352;2024-03-23T01:22:20;95231.91;;;5.20;57.51
41234;BME280;26968;42.686;23.352;2024-03-23T01:24:45;95223.59;;;5.18;56.97
41234;BME280;26968;42.686;23.352;2024-03-23T01:27:11;95237.13;;;5.36;57.32
41234;BME280;26968;42.686;23.352;2024-03-23T01:29:36;95231.63;;;5.23;57.69
41234;BME280;26968;42.686;23.352;2024-03-23T01:32:02;95225.31;;;5.09;57.68
41234;BME280;26968;42.686;23.352;2024-03-23T01:34:27;95229.34;;;5.20;57.78
41234;BME280;26968;42.686;23.352;2024-03-23T01:36:53;95240.31;;;5.30;57.95
41234;BME280;26968;42.686;23.352;2024-03-23T01:39:19;95237.44;;;5.33;56.52
41234;BME280;26968;42.686;23.352;2024-03-23T01:41:44;95227.19;;;5.33;57.24
41234;BME280;26968;42.686;23.352;2024-03-23T01:44:10;95240.84;;;5.42;57.25
41234;BME280;26968;42.686;23.352;2024-03-23T01:46:36;95244.22;;;5.50;56.05
41234;BME280;26968;42.686;23.352;2024-03-23T01:49:02;95237.50;;;5.49;56.45
41234;BME280;26968;42.686;23.352;2024-03-23T01:51:29;95235.72;;;5.08;57.60
41234;BME280;26968;42.686;23.352;2024-03-23T01:53:56;95234.38;;;4.95;58.34
41234;BME280;26968;42.686;23.352;2024-03-23T01:56:22;95199.03;;;4.73;58.11
41234;BME280;26968;42.686;23.352;2024-03-23T01:58:47;95234.44;;;5.04;58.39
41234;BME280;26968;42.686;23.352;2024-03-23T02:01:13;95232.63;;;5.04;58.04
41234;BME280;26968;42.686;23.352;2024-03-23T02:03:38;95221.53;;;4.87;59.48
41234;BME280;26968;42.686;23.352;2024-03-23T02:06:04;95225.88;;;4.95;58.52
41234;BME280;26968;42.686;23.352;2024-03-23T02:08:32;95237.38;;;5.17;57.98
41234;BME280;26968;42.686;23.352;2024-03-23T02:10:58;95239.47;;;5.21;57.54
41234;BME280;26968;42.686;23.352;2024-03-23T02:13:24;95228.22;;;5.14;56.85
41234;BME280;26968;42.686;23.352;2024-03-23T02:15:49;95223.00;;;4.98;58.68
41234;BME280;26968;42.686;23.352;2024-03-23T02:18:15;95229.59;;;5.01;57.78
41234;BME280;26968;42.686;23.352;2024-03-23T02:20:41;95246.31;;;5.13;57.00
41234;BME280;26968;42.686;23.352;2024-03-23T02:23:13;95245.66;;;5.11;57.49
41234;BME280;26968;42.686;23.352;2024-03-23T02:25:39;95219.19;;;5.02;57.19
41234;BME280;26968;42.686;23.352;2024-03-23T02:28:05;95246.63;;;5.10;57.69
41234;BME280;26968;42.686;23.352;2024-03-23T02:30:30;95239.44;;;5.13;58.24
41234;BME280;26968;42.686;23.352;2024-03-23T02:32:56;95219.00;;;4.95;57.03
41234;BME280;26968;42.686;23.352;2024-03-23T02:35:21;95226.19;;;4.92;56.84
41234;BME280;26968;42.686;23.352;2024-03-23T02:37:47;95237.50;;;4.81;57.89
41234;BME280;26968;42.686;23.352;2024-03-23T02:40:16;95250.31;;;4.81;57.54
41234;BME280;26968;42.686;23.352;2024-03-23T02:42:42;95243.31;;;4.40;59.52
41234;BME280;26968;42.686;23.352;2024-03-23T02:45:08;95227.25;;;4.55;58.85
41234;BME280;26968;42.686;23.352;2024-03-23T02:47:33;95251.84;;;4.74;58.39
41234;BME280;26968;42.686;23.352;2024-03-23T02:49:59;95238.56;;;4.71;58.04
41234;BME280;26968;42.686;23.352;2024-03-23T02:52:24;95240.91;;;4.64;57.87
41234;BME280;26968;42.686;23.352;2024-03-23T02:54:50;95242.63;;;4.81;57.62
41234;BME280;26968;42.686;23.352;2024-03-23T02:57:18;95233.28;;;4.72;56.92
41234;BME280;26968;42.686;23.352;2024-03-23T02:59:44;95223.09;;;4.54;57.20
41234;BME280;26968;42.686;23.352;2024-03-23T03:02:10;95237.50;;;4.55;57.84
41234;BME280;26968;42.686;23.352;2024-03-23T03:04:36;95208.16;;;4.50;57.62
41234;BME280;26968;42.686;23.352;2024-03-23T03:07:01;95220.16;;;4.49;58.66
41234;BME280;26968;42.686;23.352;2024-03-23T03:09:27;95240.31;;;4.70;57.96
41234;BME280;26968;42.686;23.352;2024-03-23T03:11:53;95203.38;;;4.55;57.54
41234;BME280;26968;42.686;23.352;2024-03-23T03:14:18;95236.19;;;4.77;58.32
41234;BME280;26968;42.686;23.352;2024-03-23T03:16:44;95228.78;;;4.48;58.32
41234;BME280;26968;42.686;23.352;2024-03-23T03:19:09;95240.34;;;4.52;58.18
41234;BME280;26968;42.686;23.352;2024-03-23T03:21:36;95237.03;;;4.60;57.50
41234;BME280;26968;42.686;23.352;2024-03-23T03:24:02;95242.00;;;4.62;57.18
41234;BME280;26968;42.686;23.352;2024-03-23T03:26:27;95242.81;;;4.62;57.21
41234;BME280;26968;42.686;23.352;2024-03-23T03:28:53;95242.63;;;4.55;57.65
41234;BME280;26968;42.686;23.352;2024-03-23T03:31:18;95232.41;;;4.38;57.38
41234;BME280;26968;42.686;23.352;2024-03-23T03:33:44;95249.44;;;4.47;57.68
41234;BME280;26968;42.686;23.352;2024-03-23T03:36:10;95243.59;;;4.37;58.04
41234;BME280;26968;42.686;23.352;2024-03-23T03:38:36;95232.78;;;4.43;57.72
41234;BME280;26968;42.686;23.352;2024-03-23T03:41:02;95249.97;;;4.33;57.78
41234;BME280;26968;42.686;23.352;2024-03-23T03:43:28;95239.28;;;4.37;57.50
41234;BME280;26968;42.686;23.352;2024-03-23T03:45:57;95242.69;;;4.46;56.68
41234;BME280;26968;42.686;23.352;2024-03-23T03:48:23;95242.50;;;4.39;57.25
41234;BME280;26968;42.686;23.352;2024-03-23T03:50:49;95236.28;;;4.42;56.76
41234;BME280;26968;42.686;23.352;2024-03-23T03:53:14;95237.44;;;4.47;57.53
41234;BME280;26968;42.686;23.352;2024-03-23T03:55:40;95251.03;;;4.48;57.95
41234;BME280;26968;42.686;23.352;2024-03-23T03:58:06;95244.59;;;4.44;57.14
41234;BME280;26968;42.686;23.352;2024-03-23T04:00:31;95224.03;;;4.10;57.61
41234;BME280;26968;42.686;23.352;2024-03-23T04:02:57;95243.84;;;4.26;58.36
41234;BME280;26968;42.686;23.352;2024-03-23T04:05:23;95253.41;;;4.23;58.78
41234;BME280;26968;42.686;23.352;2024-03-23T04:07:48;95255.09;;;4.33;58.18
41234;BME280;26968;42.686;23.352;2024-03-23T04:10:14;95236.16;;;4.26;57.83
41234;BME280;26968;42.686;23.352;2024-03-23T04:12:41;95241.56;;;4.22;58.38
41234;BME280;26968;42.686;23.352;2024-03-23T04:15:06;95252.69;;;3.96;59.30
41234;BME280;26968;42.686;23.352;2024-03-23T04:17:32;95256.19;;;3.77;60.70
41234;BME280;26968;42.686;23.352;2024-03-23T04:20:00;95252.91;;;4.02;59.40
41234;BME280;26968;42.686;23.352;2024-03-23T04:22:26;95258.25;;;3.91;60.16
41234;BME280;26968;42.686;23.352;2024-03-23T04:24:58;95251.44;;;4.00;59.57
41234;BME280;26968;42.686;23.352;2024-03-23T04:27:24;95261.53;;;4.01;60.36
41234;BME280;26968;42.686;23.352;2024-03-23T04:29:50;95251.94;;;4.03;59.98
41234;BME280;26968;42.686;23.352;2024-03-23T04:32:16;95254.38;;;4.05;58.85
41234;BME280;26968;42.686;23.352;2024-03-23T04:34:42;95243.63;;;4.01;58.93
41234;BME280;26968;42.686;23.352;2024-03-23T04:37:09;95260.97;;;4.07;59.84
41234;BME280;26968;42.686;23.352;2024-03-23T04:39:36;95247.06;;;4.10;58.97
41234;BME280;26968;42.686;23.352;2024-03-23T04:42:02;95250.91;;;4.14;58.97
41234;BME280;26968;42.686;23.352;2024-03-23T04:44:28;95265.94;;;4.27;59.41
41234;BME280;26968;42.686;23.352;2024-03-23T04:46:54;95255.31;;;4.21;58.79
41234;BME280;26968;42.686;23.352;2024-03-23T04:49:19;95261.75;;;4.26;58.87
41234;BME280;26968;42.686;23.352;2024-03-23T04:51:45;95267.38;;;4.29;59.62
41234;BME280;26968;42.686;23.352;2024-03-23T04:54:12;95253.13;;;4.27;58.53
41234;BME280;26968;42.686;23.352;2024-03-23T04:56:37;95263.53;;;4.25;58.92
41234;BME280;26968;42.686;23.352;2024-03-23T04:59:03;95244.84;;;4.15;58.92
41234;BME280;26968;42.686;23.352;2024-03-23T05:01:31;95272.16;;;4.42;57.99
41234;BME280;26968;42.686;23.352;2024-03-23T05:03:56;95280.69;;;4.50;57.21
41234;BME280;26968;42.686;23.352;2024-03-23T05:06:22;95264.94;;;4.45;57.50
41234;BME280;26968;42.686;23.352;2024-03-23T05:08:48;95265.56;;;4.39;57.88
41234;BME280;26968;42.686;23.352;2024-03-23T05:11:13;95255.16;;;4.41;57.26
41234;BME280;26968;42.686;23.352;2024-03-23T05:13:39;95259.03;;;4.45;57.57
41234;BME280;26968;42.686;23.352;2024-03-23T05:16:05;95262.53;;;4.44;57.38
41234;BME280;26968;42.686;23.352;2024-03-23T05:18:30;95245.50;;;4.35;57.11
41234;BME280;26968;42.686;23.352;2024-03-23T05:20:57;95267.59;;;4.53;56.89
41234;BME280;26968;42.686;23.352;2024-03-23T05:23:24;95261.66;;;4.53;57.96
41234;BME280;26968;42.686;23.352;2024-03-23T05:25:50;95253.34;;;4.59;56.74
41234;BME280;26968;42.686;23.352;2024-03-23T05:28:15;95258.19;;;4.62;57.97
41234;BME280;26968;42.686;23.352;2024-03-23T05:30:41;95256.72;;;4.59;58.27
41234;BME280;26968;42.686;23.352;2024-03-23T05:33:06;95244.41;;;4.63;56.67
41234;BME280;26968;42.686;23.352;2024-03-23T05:35:33;95258.56;;;4.67;57.49
41234;BME280;26968;42.686;23.352;2024-03-23T05:37:58;95261.56;;;4.63;57.07
41234;BME280;26968;42.686;23.352;2024-03-23T05:40:25;95249.25;;;4.66;56.64
41234;BME280;26968;42.686;23.352;2024-03-23T05:42:51;95252.59;;;4.84;54.74
41234;BME280;26968;42.686;23.352;2024-03-23T05:45:21;95232.34;;;4.73;53.73
41234;BME280;26968;42.686;23.352;2024-03-23T05:47:48;95258.91;;;4.98;53.35
41234;BME280;26968;42.686;23.352;2024-03-23T05:50:13;95249.75;;;4.95;52.88
41234;BME280;26968;42.686;23.352;2024-03-23T05:52:39;95251.06;;;5.00;53.29
41234;BME280;26968;42.686;23.352;2024-03-23T05:55:06;95264.88;;;5.07;53.92
41234;BME280;26968;42.686;23.352;2024-03-23T05:57:31;95244.34;;;5.07;54.04
41234;BME280;26968;42.686;23.352;2024-03-23T05:59:57;95263.81;;;5.17;53.33
41234;BME280;26968;42.686;23.352;2024-03-23T06:02:23;95251.97;;;5.16;53.65
41234;BME280;26968;42.686;23.352;2024-03-23T06:04:48;95257.91;;;5.17;53.79
41234;BME280;26968;42.686;23.352;2024-03-23T06:07:14;95258.19;;;5.14;54.62
41234;BME280;26968;42.686;23.352;2024-03-23T06:09:43;95248.88;;;5.13;54.59
41234;BME280;26968;42.686;23.352;2024-03-23T06:12:08;95246.34;;;5.21;54.34
41234;BME280;26968;42.686;23.352;2024-03-23T06:14:34;95240.91;;;5.16;55.10
41234;BME280;26968;42.686;23.352;2024-03-23T06:17:00;95253.13;;;5.30;54.54
41234;BME280;26968;42.686;23.352;2024-03-23T06:19:26;95236.41;;;5.18;54.52
41234;BME280;26968;42.686;23.352;2024-03-23T06:21:53;95228.78;;;5.34;54.21
41234;BME280;26968;42.686;23.352;2024-03-23T06:24:21;95248.50;;;5.34;54.62
41234;BME280;26968;42.686;23.352;2024-03-23T06:26:47;95251.25;;;5.40;54.32
41234;BME280;26968;42.686;23.352;2024-03-23T06:29:12;95211.09;;;5.23;54.41
41234;BME280;26968;42.686;23.352;2024-03-23T06:31:38;95234.44;;;5.46;53.37
41234;BME280;26968;42.686;23.352;2024-03-23T06:34:03;95224.34;;;5.44;54.46
41234;BME280;26968;42.686;23.352;2024-03-23T06:36:29;95255.78;;;5.46;54.20
41234;BME280;26968;42.686;23.352;2024-03-23T06:38:56;95238.47;;;5.56;53.51
41234;BME280;26968;42.686;23.352;2024-03-23T06:41:21;95229.47;;;5.44;54.11
41234;BME280;26968;42.686;23.352;2024-03-23T06:43:47;95228.22;;;5.56;54.18
41234;BME280;26968;42.686;23.352;2024-03-23T06:46:12;95245.13;;;5.83;53.10
41234;BME280;26968;42.686;23.352;2024-03-23T06:48:38;95237.25;;;5.85;53.62
41234;BME280;26968;42.686;23.352;2024-03-23T06:51:03;95233.09;;;5.84;53.14
41234;BME280;26968;42.686;23.352;2024-03-23T06:53:29;95243.34;;;5.84;53.74
41234;BME280;26968;42.686;23.352;2024-03-23T06:55:55;95232.78;;;5.79;53.67
41234;BME280;26968;42.686;23.352;2024-03-23T06:58:24;95247.22;;;5.88;54.41
41234;BME280;26968;42.686;23.352;2024-03-23T07:00:50;95246.94;;;5.99;53.06
41234;BME280;26968;42.686;23.352;2024-03-23T07:03:19;95237.47;;;5.99;54.04
41234;BME280;26968;42.686;23.352;2024-03-23T07:05:45;95229.28;;;5.96;53.43
41234;BME280;26968;42.686;23.352;2024-03-23T07:08:11;95223.03;;;5.98;54.15
41234;BME280;26968;42.686;23.352;2024-03-23T07:10:40;95236.84;;;6.14;53.86
41234;BME280;26968;42.686;23.352;2024-03-23T07:13:05;95231.91;;;6.20;53.82
41234;BME280;26968;42.686;23.352;2024-03-23T07:15:31;95222.91;;;6.24;53.73
41234;BME280;26968;42.686;23.352;2024-03-23T07:17:56;95226.91;;;6.27;53.07
41234;BME280;26968;42.686;23.352;2024-03-23T07:20:22;95225.47;;;6.32;52.57
41234;BME280;26968;42.686;23.352;2024-03-23T07:22:48;95223.38;;;6.36;52.31
41234;BME280;26968;42.686;23.352;2024-03-23T07:25:14;95229.00;;;6.56;51.68
41234;BME280;26968;42.686;23.352;2024-03-23T07:27:39;95224.84;;;6.55;52.28
41234;BME280;26968;42.686;23.352;2024-03-23T07:30:06;95194.47;;;6.50;51.83
41234;BME280;26968;42.686;23.352;2024-03-23T07:32:32;95202.47;;;6.63;51.68
41234;BME280;26968;42.686;23.352;2024-03-23T07:34:57;95192.69;;;6.59;51.62
41234;BME280;26968;42.686;23.352;2024-03-23T07:37:23;95209.69;;;6.76;51.30
41234;BME280;26968;42.686;23.352;2024-03-23T07:39:48;95210.69;;;6.67;50.74
41234;BME280;26968;42.686;23.352;2024-03-23T07:42:15;95214.53;;;6.71;51.55
41234;BME280;26968;42.686;23.352;2024-03-23T07:44:41;95220.47;;;6.72;51.24
41234;BME280;26968;42.686;23.352;2024-03-23T07:47:06;95198.31;;;6.70;51.33
41234;BME280;26968;42.686;23.352;2024-03-23T07:49:32;95204.88;;;6.81;50.78
41234;BME280;26968;42.686;23.352;2024-03-23T07:51:58;95211.28;;;6.85;50.59
41234;BME280;26968;42.686;23.352;2024-03-23T07:54:23;95194.84;;;6.94;50.64
41234;BME280;26968;42.686;23.352;2024-03-23T07:56:48;95205.59;;;7.06;50.76
41234;BME280;26968;42.686;23.352;2024-03-23T07:59:14;95195.13;;;7.16;50.38
41234;BME280;26968;42.686;23.352;2024-03-23T08:01:39;95205.09;;;7.11;50.80
41234;BME280;26968;42.686;23.352;2024-03-23T08:04:05;95191.88;;;7.22;50.07
41234;BME280;26968;42.686;23.352;2024-03-23T08:06:31;95195.06;;;7.24;49.35
41234;BME280;26968;42.686;23.352;2024-03-23T08:08:57;95186.94;;;7.12;49.62
41234;BME280;26968;42.686;23.352;2024-03-23T08:11:30;95203.47;;;7.18;50.25
41234;BME280;26968;42.686;23.352;2024-03-23T08:13:55;95203.91;;;7.29;49.23
41234;BME280;26968;42.686;23.352;2024-03-23T08:16:21;95196.84;;;7.31;50.05
41234;BME280;26968;42.686;23.352;2024-03-23T08:18:47;95191.81;;;7.38;49.74
41234;BME280;26968;42.686;23.352;2024-03-23T08:21:13;95193.19;;;7.49;50.16
41234;BME280;26968;42.686;23.352;2024-03-23T08:23:38;95183.38;;;7.52;49.79
41234;BME280;26968;42.686;23.352;2024-03-23T08:26:08;95172.59;;;7.49;49.84
41234;BME280;26968;42.686;23.352;2024-03-23T08:28:34;95191.00;;;7.68;49.30
41234;BME280;26968;42.686;23.352;2024-03-23T08:31:00;95188.94;;;7.64;47.86
41234;BME280;26968;42.686;23.352;2024-03-23T08:33:26;95183.69;;;7.80;47.65
41234;BME280;26968;42.686;23.352;2024-03-23T08:35:58;95186.38;;;7.87;46.63
41234;BME280;26968;42.686;23.352;2024-03-23T08:38:25;95183.75;;;7.95;46.82
41234;BME280;26968;42.686;23.352;2024-03-23T08:41:01;95178.38;;;8.04;46.98
41234;BME280;26968;42.686;23.352;2024-03-23T08:43:31;95172.53;;;8.10;47.00
41234;BME280;26968;42.686;23.352;2024-03-23T08:46:10;95165.44;;;8.12;46.17
41234;BME280;26968;42.686;23.352;2024-03-23T08:48:38;95164.28;;;8.15;45.58
41234;BME280;26968;42.686;23.352;2024-03-23T08:51:05;95160.13;;;8.37;45.88
41234;BME280;26968;42.686;23.352;2024-03-23T08:53:32;95127.59;;;8.28;45.77
41234;BME280;26968;42.686;23.352;2024-03-23T08:56:03;95135.78;;;8.39;46.11
41234;BME280;26968;42.686;23.352;2024-03-23T08:58:30;95149.75;;;8.60;46.44
41234;BME280;26968;42.686;23.352;2024-03-23T09:01:02;95143.53;;;8.69;45.77
41234;BME280;26968;42.686;23.352;2024-03-23T09:03:28;95138.09;;;8.64;46.00
41234;BME280;26968;42.686;23.352;2024-03-23T09:05:54;95140.84;;;8.77;46.33
41234;BME280;26968;42.686;23.352;2024-03-23T09:08:20;95130.66;;;8.69;45.76
41234;BME280;26968;42.686;23.352;2024-03-23T09:10:46;95137.47;;;8.91;46.10
41234;BME280;26968;42.686;23.352;2024-03-23T09:13:12;95118.91;;;8.81;45.29
41234;BME280;26968;42.686;23.352;2024-03-23T09:15:45;95131.78;;;8.96;45.77
41234;BME280;26968;42.686;23.352;2024-03-23T09:18:11;95120.72;;;9.02;46.28
41234;BME280;26968;42.686;23.352;2024-03-23T09:20:36;95112.63;;;9.05;44.79
41234;BME280;26968;42.686;23.352;2024-03-23T09:23:02;95109.81;;;9.14;44.85
41234;BME280;26968;42.686;23.352;2024-03-23T09:25:27;95101.94;;;9.23;44.50
41234;BME280;26968;42.686;23.352;2024-03-23T09:27:52;95096.78;;;9.23;45.02
41234;BME280;26968;42.686;23.352;2024-03-23T09:30:18;95099.84;;;9.33;45.20
41234;BME280;26968;42.686;23.352;2024-03-23T09:33:02;95089.97;;;9.36;44.82
41234;BME280;26968;42.686;23.352;2024-03-23T09:35:28;95086.84;;;9.41;44.36
41234;BME280;26968;42.686;23.352;2024-03-23T09:37:53;95091.34;;;9.53;43.88
41234;BME280;26968;42.686;23.352;2024-03-23T09:40:19;95080.91;;;9.62;44.97
41234;BME280;26968;42.686;23.352;2024-03-23T09:42:49;95083.00;;;9.73;44.71
41234;BME280;26968;42.686;23.352;2024-03-23T09:45:23;95076.72;;;9.82;45.67
41234;BME280;26968;42.686;23.352;2024-03-23T09:47:51;95065.81;;;9.86;43.58
41234;BME280;26968;42.686;23.352;2024-03-23T09:50:17;95064.16;;;10.00;44.52
41234;BME280;26968;42.686;23.352;2024-03-23T09:52:45;95057.84;;;10.09;43.45
41234;BME280;26968;42.686;23.352;2024-03-23T09:55:11;95067.31;;;10.23;44.76
41234;BME280;26968;42.686;23.352;2024-03-23T09:57:37;95059.25;;;10.33;42.88
41234;BME280;26968;42.686;23.352;2024-03-23T10:00:03;95063.44;;;10.34;42.05
41234;BME280;26968;42.686;23.352;2024-03-23T10:02:28;95040.97;;;10.35;42.10
41234;BME280;26968;42.686;23.352;2024-03-23T10:05:20;95040.47;;;10.52;42.62
41234;BME280;26968;42.686;23.352;2024-03-23T10:07:46;95046.06;;;10.97;40.65
41234;BME280;26968;42.686;23.352;2024-03-23T10:10:12;95021.91;;;11.57;39.92
41234;BME280;26968;42.686;23.352;2024-03-23T10:12:44;95038.25;;;12.50;37.57
41234;BME280;26968;42.686;23.352;2024-03-23T10:15:22;95014.44;;;13.56;36.11
41234;BME280;26968;42.686;23.352;2024-03-23T10:17:48;95028.44;;;14.72;33.53
41234;BME280;26968;42.686;23.352;2024-03-23T10:20:22;95031.81;;;15.58;31.17
41234;BME280;26968;42.686;23.352;2024-03-23T10:22:51;95015.69;;;16.61;30.46
41234;BME280;26968;42.686;23.352;2024-03-23T10:25:17;95007.47;;;17.32;27.39
41234;BME280;26968;42.686;23.352;2024-03-23T10:27:58;95014.31;;;17.78;25.95
41234;BME280;26968;42.686;23.352;2024-03-23T10:30:24;94987.91;;;17.97;25.61
41234;BME280;26968;42.686;23.352;2024-03-23T10:33:06;94993.47;;;18.17;25.79
41234;BME280;26968;42.686;23.352;2024-03-23T10:35:32;94997.84;;;18.50;25.99
41234;BME280;26968;42.686;23.352;2024-03-23T10:37:58;94991.53;;;18.46;24.37
41234;BME280;26968;42.686;23.352;2024-03-23T10:40:23;94970.84;;;18.66;23.90
41234;BME280;26968;42.686;23.352;2024-03-23T10:42:52;94974.91;;;19.22;23.30
41234;BME280;26968;42.686;23.352;2024-03-23T10:45:18;94969.16;;;19.25;23.37
41234;BME280;26968;42.686;23.352;2024-03-23T10:47:43;94963.25;;;19.35;22.38
41234;BME280;26968;42.686;23.352;2024-03-23T10:50:09;94955.78;;;20.13;21.98
41234;BME280;26968;42.686;23.352;2024-03-23T10:52:35;94955.56;;;20.66;23.69
41234;BME280;26968;42.686;23.352;2024-03-23T10:55:03;94947.47;;;20.73;22.41
41234;BME280;26968;42.686;23.352;2024-03-23T10:57:42;94942.84;;;21.11;21.79
41234;BME280;26968;42.686;23.352;2024-03-23T11:00:11;94941.91;;;20.69;20.27
41234;BME280;26968;42.686;23.352;2024-03-23T11:02:37;94931.63;;;20.63;21.04
41234;BME280;26968;42.686;23.352;2024-03-23T11:07:51;94914.44;;;21.02;20.38
41234;BME280;26968;42.686;23.352;2024-03-23T11:10:30;94911.88;;;21.33;20.84
41234;BME280;26968;42.686;23.352;2024-03-23T11:12:58;94910.28;;;22.23;19.56
41234;BME280;26968;42.686;23.352;2024-03-23T11:15:43;94899.75;;;22.23;20.96
41234;BME280;26968;42.686;23.352;2024-03-23T11:18:09;94907.00;;;22.67;18.80
41234;BME280;26968;42.686;23.352;2024-03-23T11:20:35;94875.88;;;22.64;19.00
41234;BME280;26968;42.686;23.352;2024-03-23T11:23:02;94886.63;;;22.13;18.82
41234;BME280;26968;42.686;23.352;2024-03-23T11:25:29;94891.31;;;22.21;19.17
41234;BME280;26968;42.686;23.352;2024-03-23T11:27:56;94885.56;;;21.33;20.00
41234;BME280;26968;42.686;23.352;2024-03-23T11:30:27;94861.50;;;20.68;20.44
41234;BME280;26968;42.686;23.352;2024-03-23T11:32:57;94873.84;;;20.68;20.11
41234;BME280;26968;42.686;23.352;2024-03-23T11:35:38;94876.91;;;21.63;20.14
41234;BME280;26968;42.686;23.352;2024-03-23T11:40:34;94856.78;;;19.71;21.55
41234;BME280;26968;42.686;23.352;2024-03-23T11:43:01;94860.22;;;20.24;20.93
41234;BME280;26968;42.686;23.352;2024-03-23T11:45:27;94848.41;;;21.09;20.91
41234;BME280;26968;42.686;23.352;2024-03-23T11:48:10;94844.00;;;21.35;22.07
41234;BME280;26968;42.686;23.352;2024-03-23T11:50:41;94846.78;;;22.25;18.99
41234;BME280;26968;42.686;23.352;2024-03-23T11:53:20;94848.72;;;23.18;19.21
41234;BME280;26968;42.686;23.352;2024-03-23T11:55:49;94809.41;;;23.16;17.57
41234;BME280;26968;42.686;23.352;2024-03-23T11:58:17;94829.88;;;22.95;18.18
41234;BME280;26968;42.686;23.352;2024-03-23T12:00:52;94815.88;;;22.95;18.07
41234;BME280;26968;42.686;23.352;2024-03-23T12:03:19;94806.38;;;23.33;18.17
41234;BME280;26968;42.686;23.352;2024-03-23T12:05:50;94783.88;;;22.62;19.02
41234;BME280;26968;42.686;23.352;2024-03-23T12:08:31;94806.41;;;22.39;20.12
41234;BME280;26968;42.686;23.352;2024-03-23T12:11:16;94794.44;;;21.88;18.98
41234;BME280;26968;42.686;23.352;2024-03-23T12:13:43;94794.72;;;21.91;19.44
41234;BME280;26968;42.686;23.352;2024-03-23T12:16:17;94778.47;;;21.44;19.21
41234;BME280;26968;42.686;23.352;2024-03-23T12:18:44;94788.44;;;22.52;18.84
41234;BME280;26968;42.686;23.352;2024-03-23T12:21:10;94790.91;;;22.87;18.26
41234;BME280;26968;42.686;23.352;2024-03-23T12:23:38;94794.47;;;22.57;18.67
41234;BME280;26968;42.686;23.352;2024-03-23T12:26:03;94785.47;;;22.14;18.12
41234;BME280;26968;42.686;23.352;2024-03-23T12:28:29;94770.88;;;22.32;17.88
41234;BME280;26968;42.686;23.352;2024-03-23T12:30:55;94763.19;;;22.45;17.86
41234;BME280;26968;42.686;23.352;2024-03-23T12:33:21;94771.91;;;22.41;18.39
41234;BME280;26968;42.686;23.352;2024-03-23T12:35:47;94752.22;;;22.18;17.75
41234;BME280;26968;42.686;23.352;2024-03-23T12:38:13;94737.72;;;21.31;18.61
41234;BME280;26968;42.686;23.352;2024-03-23T12:40:39;94751.50;;;22.07;18.29
41234;BME280;26968;42.686;23.352;2024-03-23T12:43:04;94755.09;;;22.71;17.22
41234;BME280;26968;42.686;23.352;2024-03-23T12:45:30;94726.41;;;23.03;16.80
41234;BME280;26968;42.686;23.352;2024-03-23T12:47:55;94734.19;;;22.45;18.50
41234;BME280;26968;42.686;23.352;2024-03-23T12:50:21;94730.38;;;23.35;17.90
41234;BME280;26968;42.686;23.352;2024-03-23T12:52:47;94733.91;;;23.49;17.07
41234;BME280;26968;42.686;23.352;2024-03-23T12:55:13;94720.75;;;22.86;17.40
41234;BME280;26968;42.686;23.352;2024-03-23T12:57:38;94721.56;;;22.82;17.53
41234;BME280;26968;42.686;23.352;2024-03-23T13:00:04;94727.53;;;22.92;16.78
41234;BME280;26968;42.686;23.352;2024-03-23T13:02:30;94715.19;;;23.22;17.30
41234;BME280;26968;42.686;23.352;2024-03-23T13:04:56;94695.09;;;23.78;16.46
41234;BME280;26968;42.686;23.352;2024-03-23T13:07:22;94703.06;;;24.16;16.19
41234;BME280;26968;42.686;23.352;2024-03-23T13:09:52;94705.75;;;24.35;16.28
41234;BME280;26968;42.686;23.352;2024-03-23T13:12:21;94697.66;;;24.45;16.18
41234;BME280;26968;42.686;23.352;2024-03-23T13:14:46;94696.63;;;24.03;15.27
41234;BME280;26968;42.686;23.352;2024-03-23T13:17:12;94694.63;;;24.14;15.01
41234;BME280;26968;42.686;23.352;2024-03-23T13:19:38;94687.16;;;23.26;15.88
41234;BME280;26968;42.686;23.352;2024-03-23T13:22:04;94671.94;;;23.18;15.62
41234;BME280;26968;42.686;23.352;2024-03-23T13:24:30;94665.88;;;22.88;17.08
41234;BME280;26968;42.686;23.352;2024-03-23T13:26:56;94692.91;;;22.65;14.57
41234;BME280;26968;42.686;23.352;2024-03-23T13:29:23;94682.78;;;22.87;13.85
41234;BME280;26968;42.686;23.352;2024-03-23T13:31:50;94685.38;;;22.53;13.75
41234;BME280;26968;42.686;23.352;2024-03-23T13:34:16;94660.41;;;23.08;12.86
41234;BME280;26968;42.686;23.352;2024-03-23T13:36:45;94669.47;;;22.24;13.38
41234;BME280;26968;42.686;23.352;2024-03-23T13:39:12;94670.81;;;22.61;13.40
41234;BME280;26968;42.686;23.352;2024-03-23T13:44:04;94657.75;;;22.45;12.90
41234;BME280;26968;42.686;23.352;2024-03-23T13:46:30;94644.47;;;22.61;12.54
41234;BME280;26968;42.686;23.352;2024-03-23T13:48:55;94639.09;;;22.71;12.94
41234;BME280;26968;42.686;23.352;2024-03-23T13:51:24;94659.47;;;23.52;14.08
41234;BME280;26968;42.686;23.352;2024-03-23T13:53:52;94638.50;;;24.03;13.24
41234;BME280;26968;42.686;23.352;2024-03-23T13:56:18;94625.41;;;23.74;12.12
41234;BME280;26968;42.686;23.352;2024-03-23T13:58:43;94652.19;;;23.87;12.65